sensor_id;sensor_type;location;lat;lon;timestamp;P1;durP1;ratioP1;P2;durP2;ratioP2
10100;SDS011;5090;51.258;4.436;2022-11-15T00:01:31;37.63;;;23.03;;
10100;SDS011;5090;51.258;4.436;2022-11-15T00:03:59;36.77;;;21.93;;
10100;SDS011;5090;51.258;4.436;2022-11-15T00:06:28;38.60;;;21.77;;
10100;SDS011;5090;51.258;4.436;2022-11-15T00:08:58;37.13;;;21.97;;
10100;SDS011;5090;51.258;4.436;2022-11-15T00:11:26;36.03;;;22.93;;
10100;SDS011;5090;51.258;4.436;2022-11-15T00:13:55;40.70;;;22.97;;
10100;SDS011;5090;51.258;4.436;2022-11-15T00:16:23;35.40;;;22.17;;
10100;SDS011;5090;51.258;4.436;2022-11-15T00:18:51;41.13;;;23.17;;
10100;SDS011;5090;51.258;4.436;2022-11-15T00:21:19;38.30;;;23.10;;
10100;SDS011;5090;51.258;4.436;2022-11-15T00:23:47;34.53;;;21.53;;
10100;SDS011;5090;51.258;4.436;2022-11-15T00:26:15;34.70;;;22.27;;
10100;SDS011;5090;51.258;4.436;2022-11-15T00:28:44;35.83;;;21.93;;
10100;SDS011;5090;51.258;4.436;2022-11-15T00:31:13;39.03;;;22.70;;
10100;SDS011;5090;51.258;4.436;2022-11-15T00:33:42;33.70;;;22.23;;
10100;SDS011;5090;51.258;4.436;2022-11-15T00:36:09;40.03;;;21.07;;
10100;SDS011;5090;51.258;4.436;2022-11-15T00:38:38;36.10;;;20.60;;
10100;SDS011;5090;51.258;4.436;2022-11-15T00:41:06;35.70;;;22.00;;
10100;SDS011;5090;51.258;4.436;2022-11-15T00:43:33;36.47;;;22.07;;
10100;SDS011;5090;51.258;4.436;2022-11-15T00:46:02;37.03;;;20.83;;
10100;SDS011;5090;51.258;4.436;2022-11-15T00:48:30;33.07;;;21.73;;
10100;SDS011;5090;51.258;4.436;2022-11-15T00:50:58;30.93;;;20.63;;
10100;SDS011;5090;51.258;4.436;2022-11-15T00:53:26;34.67;;;20.07;;
10100;SDS011;5090;51.258;4.436;2022-11-15T00:55:55;33.30;;;18.50;;
10100;SDS011;5090;51.258;4.436;2022-11-15T00:58:23;31.80;;;19.23;;
10100;SDS011;5090;51.258;4.436;2022-11-15T01:00:51;28.23;;;18.43;;
10100;SDS011;5090;51.258;4.436;2022-11-15T01:03:19;31.00;;;19.10;;
10100;SDS011;5090;51.258;4.436;2022-11-15T01:05:47;27.70;;;18.10;;
10100;SDS011;5090;51.258;4.436;2022-11-15T01:08:16;26.93;;;17.17;;
10100;SDS011;5090;51.258;4.436;2022-11-15T01:10:44;28.83;;;17.53;;
10100;SDS011;5090;51.258;4.436;2022-11-15T01:13:12;30.30;;;17.43;;
10100;SDS011;5090;51.258;4.436;2022-11-15T01:15:40;29.13;;;17.53;;
10100;SDS011;5090;51.258;4.436;2022-11-15T01:18:09;22.97;;;15.73;;
10100;SDS011;5090;51.258;4.436;2022-11-15T01:20:40;26.57;;;18.07;;
10100;SDS011;5090;51.258;4.436;2022-11-15T01:23:07;25.27;;;17.83;;
10100;SDS011;5090;51.258;4.436;2022-11-15T01:25:35;26.60;;;16.23;;
10100;SDS011;5090;51.258;4.436;2022-11-15T01:28:04;22.23;;;16.40;;
10100;SDS011;5090;51.258;4.436;2022-11-15T01:30:32;22.00;;;15.23;;
10100;SDS011;5090;51.258;4.436;2022-11-15T01:33:00;27.77;;;16.33;;
10100;SDS011;5090;51.258;4.436;2022-11-15T01:35:28;23.10;;;15.47;;
10100;SDS011;5090;51.258;4.436;2022-11-15T01:37:56;22.77;;;14.90;;
10100;SDS011;5090;51.258;4.436;2022-11-15T01:40:24;23.03;;;15.50;;
10100;SDS011;5090;51.258;4.436;2022-11-15T01:42:53;24.87;;;15.23;;
10100;SDS011;5090;51.258;4.436;2022-11-15T01:45:22;22.73;;;15.40;;
10100;SDS011;5090;51.258;4.436;2022-11-15T01:47:51;23.10;;;14.63;;
10100;SDS011;5090;51.258;4.436;2022-11-15T01:50:20;20.00;;;13.63;;
10100;SDS011;5090;51.258;4.436;2022-11-15T01:52:46;21.47;;;14.10;;
10100;SDS011;5090;51.258;4.436;2022-11-15T01:55:17;21.67;;;13.03;;
10100;SDS011;5090;51.258;4.436;2022-11-15T01:57:44;22.10;;;13.57;;
10100;SDS011;5090;51.258;4.436;2022-11-15T02:00:12;21.57;;;14.03;;
10100;SDS011;5090;51.258;4.436;2022-11-15T02:02:41;22.63;;;13.63;;
10100;SDS011;5090;51.258;4.436;2022-11-15T02:05:09;21.27;;;13.40;;
10100;SDS011;5090;51.258;4.436;2022-11-15T02:07:37;17.87;;;12.93;;
10100;SDS011;5090;51.258;4.436;2022-11-15T02:10:07;27.30;;;13.40;;
10100;SDS011;5090;51.258;4.436;2022-11-15T02:12:34;19.27;;;12.70;;
10100;SDS011;5090;51.258;4.436;2022-11-15T02:15:03;18.70;;;12.00;;
10100;SDS011;5090;51.258;4.436;2022-11-15T02:17:48;25.00;;;13.27;;
10100;SDS011;5090;51.258;4.436;2022-11-15T02:20:24;16.10;;;11.63;;
10100;SDS011;5090;51.258;4.436;2022-11-15T02:22:56;17.93;;;11.73;;
10100;SDS011;5090;51.258;4.436;2022-11-15T02:25:34;21.43;;;12.53;;
10100;SDS011;5090;51.258;4.436;2022-11-15T02:30:37;16.87;;;11.00;;
10100;SDS011;5090;51.258;4.436;2022-11-15T02:33:07;18.73;;;11.30;;
10100;SDS011;5090;51.258;4.436;2022-11-15T02:35:39;17.27;;;11.20;;
10100;SDS011;5090;51.258;4.436;2022-11-15T02:38:07;16.53;;;10.53;;
10100;SDS011;5090;51.258;4.436;2022-11-15T02:40:35;14.33;;;10.33;;
10100;SDS011;5090;51.258;4.436;2022-11-15T02:43:07;19.33;;;11.17;;
10100;SDS011;5090;51.258;4.436;2022-11-15T02:45:40;16.90;;;10.73;;
10100;SDS011;5090;51.258;4.436;2022-11-15T02:48:07;17.07;;;10.57;;
10100;SDS011;5090;51.258;4.436;2022-11-15T02:50:36;17.93;;;10.73;;
10100;SDS011;5090;51.258;4.436;2022-11-15T02:53:04;16.00;;;9.77;;
10100;SDS011;5090;51.258;4.436;2022-11-15T02:55:33;16.37;;;10.47;;
10100;SDS011;5090;51.258;4.436;2022-11-15T02:58:06;13.93;;;9.27;;
10100;SDS011;5090;51.258;4.436;2022-11-15T03:00:31;16.23;;;10.17;;
10100;SDS011;5090;51.258;4.436;2022-11-15T03:08:32;16.10;;;10.23;;
10100;SDS011;5090;51.258;4.436;2022-11-15T03:11:07;15.97;;;10.77;;
10100;SDS011;5090;51.258;4.436;2022-11-15T03:13:38;15.50;;;10.60;;
10100;SDS011;5090;51.258;4.436;2022-11-15T03:16:06;18.67;;;11.37;;
10100;SDS011;5090;51.258;4.436;2022-11-15T03:18:35;14.90;;;10.57;;
10100;SDS011;5090;51.258;4.436;2022-11-15T03:21:02;18.27;;;10.50;;
10100;SDS011;5090;51.258;4.436;2022-11-15T03:23:30;15.90;;;10.30;;
10100;SDS011;5090;51.258;4.436;2022-11-15T03:25:58;15.67;;;10.60;;
10100;SDS011;5090;51.258;4.436;2022-11-15T03:28:28;13.93;;;10.40;;
10100;SDS011;5090;51.258;4.436;2022-11-15T03:30:55;19.40;;;10.17;;
10100;SDS011;5090;51.258;4.436;2022-11-15T03:33:23;18.33;;;10.13;;
10100;SDS011;5090;51.258;4.436;2022-11-15T03:35:52;21.53;;;10.77;;
10100;SDS011;5090;51.258;4.436;2022-11-15T03:38:22;13.73;;;9.90;;
10100;SDS011;5090;51.258;4.436;2022-11-15T03:40:51;15.17;;;10.13;;
10100;SDS011;5090;51.258;4.436;2022-11-15T03:43:22;20.60;;;10.17;;
10100;SDS011;5090;51.258;4.436;2022-11-15T03:45:48;18.20;;;10.83;;
10100;SDS011;5090;51.258;4.436;2022-11-15T03:48:18;16.63;;;9.67;;
10100;SDS011;5090;51.258;4.436;2022-11-15T03:50:45;19.07;;;9.97;;
10100;SDS011;5090;51.258;4.436;2022-11-15T03:53:14;17.93;;;10.53;;
10100;SDS011;5090;51.258;4.436;2022-11-15T03:55:42;15.73;;;9.97;;
10100;SDS011;5090;51.258;4.436;2022-11-15T03:58:10;11.97;;;8.70;;
10100;SDS011;5090;51.258;4.436;2022-11-15T04:00:38;17.73;;;8.33;;
10100;SDS011;5090;51.258;4.436;2022-11-15T04:03:06;16.77;;;8.67;;
10100;SDS011;5090;51.258;4.436;2022-11-15T04:05:34;16.13;;;8.70;;
10100;SDS011;5090;51.258;4.436;2022-11-15T04:08:03;17.23;;;8.23;;
10100;SDS011;5090;51.258;4.436;2022-11-15T04:10:31;15.40;;;7.50;;
10100;SDS011;5090;51.258;4.436;2022-11-15T04:12:59;14.70;;;8.50;;
10100;SDS011;5090;51.258;4.436;2022-11-15T04:15:27;16.13;;;7.70;;
10100;SDS011;5090;51.258;4.436;2022-11-15T04:17:56;11.10;;;7.50;;
10100;SDS011;5090;51.258;4.436;2022-11-15T04:20:25;11.60;;;6.83;;
10100;SDS011;5090;51.258;4.436;2022-11-15T04:22:59;13.40;;;7.03;;
10100;SDS011;5090;51.258;4.436;2022-11-15T04:25:32;14.07;;;7.00;;
10100;SDS011;5090;51.258;4.436;2022-11-15T04:28:00;13.93;;;6.87;;
10100;SDS011;5090;51.258;4.436;2022-11-15T04:30:28;16.13;;;6.53;;
10100;SDS011;5090;51.258;4.436;2022-11-15T04:32:56;11.03;;;7.30;;
10100;SDS011;5090;51.258;4.436;2022-11-15T04:35:26;13.00;;;7.20;;
10100;SDS011;5090;51.258;4.436;2022-11-15T04:37:55;13.03;;;7.23;;
10100;SDS011;5090;51.258;4.436;2022-11-15T04:40:23;16.93;;;7.70;;
10100;SDS011;5090;51.258;4.436;2022-11-15T04:42:51;13.87;;;7.70;;
10100;SDS011;5090;51.258;4.436;2022-11-15T04:45:19;11.37;;;7.10;;
10100;SDS011;5090;51.258;4.436;2022-11-15T04:47:47;11.87;;;6.73;;
10100;SDS011;5090;51.258;4.436;2022-11-15T04:50:15;17.33;;;7.97;;
10100;SDS011;5090;51.258;4.436;2022-11-15T04:52:50;10.90;;;6.33;;
10100;SDS011;5090;51.258;4.436;2022-11-15T04:55:12;11.97;;;7.00;;
10100;SDS011;5090;51.258;4.436;2022-11-15T04:57:40;12.67;;;7.13;;
10100;SDS011;5090;51.258;4.436;2022-11-15T05:00:09;8.67;;;6.67;;
10100;SDS011;5090;51.258;4.436;2022-11-15T05:02:37;15.77;;;7.20;;
10100;SDS011;5090;51.258;4.436;2022-11-15T05:05:24;11.33;;;6.83;;
10100;SDS011;5090;51.258;4.436;2022-11-15T05:07:52;10.87;;;6.43;;
10100;SDS011;5090;51.258;4.436;2022-11-15T05:10:20;7.90;;;5.73;;
10100;SDS011;5090;51.258;4.436;2022-11-15T05:12:48;12.57;;;6.67;;
10100;SDS011;5090;51.258;4.436;2022-11-15T05:15:17;14.47;;;6.93;;
10100;SDS011;5090;51.258;4.436;2022-11-15T05:17:45;17.97;;;6.90;;
10100;SDS011;5090;51.258;4.436;2022-11-15T05:20:13;12.40;;;6.53;;
10100;SDS011;5090;51.258;4.436;2022-11-15T05:22:42;10.03;;;6.50;;
10100;SDS011;5090;51.258;4.436;2022-11-15T05:25:10;14.37;;;5.90;;
10100;SDS011;5090;51.258;4.436;2022-11-15T05:27:38;10.93;;;6.40;;
10100;SDS011;5090;51.258;4.436;2022-11-15T05:30:07;10.83;;;6.20;;
10100;SDS011;5090;51.258;4.436;2022-11-15T05:32:35;11.73;;;6.07;;
10100;SDS011;5090;51.258;4.436;2022-11-15T05:35:03;11.80;;;5.87;;
10100;SDS011;5090;51.258;4.436;2022-11-15T05:37:33;11.00;;;5.80;;
10100;SDS011;5090;51.258;4.436;2022-11-15T05:40:01;9.57;;;5.77;;
10100;SDS011;5090;51.258;4.436;2022-11-15T05:42:29;12.03;;;6.03;;
10100;SDS011;5090;51.258;4.436;2022-11-15T05:44:57;11.40;;;6.40;;
10100;SDS011;5090;51.258;4.436;2022-11-15T05:47:26;11.50;;;6.00;;
10100;SDS011;5090;51.258;4.436;2022-11-15T05:49:54;10.43;;;5.30;;
10100;SDS011;5090;51.258;4.436;2022-11-15T05:52:25;11.57;;;5.63;;
10100;SDS011;5090;51.258;4.436;2022-11-15T05:54:50;17.03;;;5.67;;
10100;SDS011;5090;51.258;4.436;2022-11-15T05:57:19;13.90;;;6.37;;
10100;SDS011;5090;51.258;4.436;2022-11-15T05:59:47;13.10;;;5.53;;
10100;SDS011;5090;51.258;4.436;2022-11-15T06:02:15;9.73;;;5.97;;
10100;SDS011;5090;51.258;4.436;2022-11-15T06:04:44;11.50;;;6.20;;
10100;SDS011;5090;51.258;4.436;2022-11-15T06:07:12;11.73;;;5.83;;
10100;SDS011;5090;51.258;4.436;2022-11-15T06:09:40;10.80;;;5.50;;
10100;SDS011;5090;51.258;4.436;2022-11-15T06:12:08;8.03;;;4.47;;
10100;SDS011;5090;51.258;4.436;2022-11-15T06:14:36;8.47;;;4.90;;
10100;SDS011;5090;51.258;4.436;2022-11-15T06:17:05;9.00;;;5.10;;
10100;SDS011;5090;51.258;4.436;2022-11-15T06:19:33;12.93;;;4.87;;
10100;SDS011;5090;51.258;4.436;2022-11-15T06:22:01;10.20;;;4.57;;
10100;SDS011;5090;51.258;4.436;2022-11-15T06:24:29;7.40;;;4.70;;
10100;SDS011;5090;51.258;4.436;2022-11-15T06:26:57;12.23;;;4.60;;
10100;SDS011;5090;51.258;4.436;2022-11-15T06:29:26;5.53;;;4.07;;
10100;SDS011;5090;51.258;4.436;2022-11-15T06:31:54;10.00;;;4.47;;
10100;SDS011;5090;51.258;4.436;2022-11-15T06:34:22;8.53;;;4.17;;
10100;SDS011;5090;51.258;4.436;2022-11-15T06:36:50;16.57;;;4.50;;
10100;SDS011;5090;51.258;4.436;2022-11-15T06:39:18;11.27;;;5.13;;
10100;SDS011;5090;51.258;4.436;2022-11-15T06:41:47;9.17;;;4.40;;
10100;SDS011;5090;51.258;4.436;2022-11-15T06:44:15;8.87;;;3.77;;
10100;SDS011;5090;51.258;4.436;2022-11-15T06:46:43;8.93;;;3.97;;
10100;SDS011;5090;51.258;4.436;2022-11-15T06:49:11;10.30;;;3.70;;
10100;SDS011;5090;51.258;4.436;2022-11-15T06:51:39;8.70;;;4.67;;
10100;SDS011;5090;51.258;4.436;2022-11-15T06:54:08;10.00;;;4.13;;
10100;SDS011;5090;51.258;4.436;2022-11-15T06:56:36;10.47;;;4.33;;
10100;SDS011;5090;51.258;4.436;2022-11-15T06:59:04;13.43;;;5.47;;
10100;SDS011;5090;51.258;4.436;2022-11-15T07:01:32;9.77;;;5.73;;
10100;SDS011;5090;51.258;4.436;2022-11-15T07:04:01;15.57;;;6.07;;
10100;SDS011;5090;51.258;4.436;2022-11-15T07:06:29;11.17;;;6.93;;
10100;SDS011;5090;51.258;4.436;2022-11-15T07:08:57;10.43;;;6.80;;
10100;SDS011;5090;51.258;4.436;2022-11-15T07:11:25;16.40;;;7.40;;
10100;SDS011;5090;51.258;4.436;2022-11-15T07:13:54;12.03;;;6.57;;
10100;SDS011;5090;51.258;4.436;2022-11-15T07:16:22;19.80;;;7.97;;
10100;SDS011;5090;51.258;4.436;2022-11-15T07:18:50;15.03;;;7.90;;
10100;SDS011;5090;51.258;4.436;2022-11-15T07:21:18;15.80;;;7.63;;
10100;SDS011;5090;51.258;4.436;2022-11-15T07:23:46;13.70;;;7.50;;
10100;SDS011;5090;51.258;4.436;2022-11-15T07:26:14;15.50;;;7.57;;
10100;SDS011;5090;51.258;4.436;2022-11-15T07:28:43;11.10;;;7.50;;
10100;SDS011;5090;51.258;4.436;2022-11-15T07:31:11;17.50;;;7.27;;
10100;SDS011;5090;51.258;4.436;2022-11-15T07:33:39;10.90;;;5.97;;
10100;SDS011;5090;51.258;4.436;2022-11-15T07:36:08;8.93;;;5.83;;
10100;SDS011;5090;51.258;4.436;2022-11-15T07:38:36;11.77;;;6.17;;
10100;SDS011;5090;51.258;4.436;2022-11-15T07:41:05;12.20;;;5.87;;
10100;SDS011;5090;51.258;4.436;2022-11-15T07:43:32;9.60;;;6.20;;
10100;SDS011;5090;51.258;4.436;2022-11-15T07:46:04;7.43;;;5.10;;
10100;SDS011;5090;51.258;4.436;2022-11-15T07:48:32;12.10;;;5.30;;
10100;SDS011;5090;51.258;4.436;2022-11-15T07:51:00;12.10;;;5.47;;
10100;SDS011;5090;51.258;4.436;2022-11-15T07:53:28;9.63;;;6.00;;
10100;SDS011;5090;51.258;4.436;2022-11-15T07:55:56;10.77;;;5.13;;
10100;SDS011;5090;51.258;4.436;2022-11-15T07:58:25;8.87;;;5.70;;
10100;SDS011;5090;51.258;4.436;2022-11-15T08:00:53;14.27;;;6.13;;
10100;SDS011;5090;51.258;4.436;2022-11-15T08:03:21;11.77;;;6.27;;
10100;SDS011;5090;51.258;4.436;2022-11-15T08:05:50;11.40;;;5.07;;
10100;SDS011;5090;51.258;4.436;2022-11-15T08:08:17;18.03;;;5.30;;
10100;SDS011;5090;51.258;4.436;2022-11-15T08:10:46;12.87;;;5.30;;
10100;SDS011;5090;51.258;4.436;2022-11-15T08:13:14;14.40;;;6.40;;
10100;SDS011;5090;51.258;4.436;2022-11-15T08:15:42;11.47;;;6.27;;
10100;SDS011;5090;51.258;4.436;2022-11-15T08:18:11;9.90;;;5.70;;
10100;SDS011;5090;51.258;4.436;2022-11-15T08:20:39;11.43;;;5.40;;
10100;SDS011;5090;51.258;4.436;2022-11-15T08:23:07;9.77;;;5.00;;
10100;SDS011;5090;51.258;4.436;2022-11-15T08:25:35;10.30;;;5.00;;
10100;SDS011;5090;51.258;4.436;2022-11-15T08:28:04;9.73;;;4.90;;
10100;SDS011;5090;51.258;4.436;2022-11-15T08:30:34;8.13;;;4.53;;
10100;SDS011;5090;51.258;4.436;2022-11-15T08:32:59;7.37;;;4.37;;
10100;SDS011;5090;51.258;4.436;2022-11-15T08:35:28;14.87;;;4.57;;
10100;SDS011;5090;51.258;4.436;2022-11-15T08:37:56;6.20;;;3.70;;
10100;SDS011;5090;51.258;4.436;2022-11-15T08:40:24;6.27;;;3.83;;
10100;SDS011;5090;51.258;4.436;2022-11-15T08:42:53;10.07;;;3.93;;
10100;SDS011;5090;51.258;4.436;2022-11-15T08:45:21;12.00;;;3.60;;
10100;SDS011;5090;51.258;4.436;2022-11-15T08:47:49;9.17;;;3.57;;
10100;SDS011;5090;51.258;4.436;2022-11-15T08:50:17;10.50;;;4.97;;
10100;SDS011;5090;51.258;4.436;2022-11-15T08:52:45;4.70;;;3.47;;
10100;SDS011;5090;51.258;4.436;2022-11-15T08:55:14;10.43;;;4.87;;
10100;SDS011;5090;51.258;4.436;2022-11-15T08:57:42;7.10;;;3.57;;
10100;SDS011;5090;51.258;4.436;2022-11-15T09:00:10;7.27;;;3.33;;
10100;SDS011;5090;51.258;4.436;2022-11-15T09:02:39;4.23;;;3.37;;
10100;SDS011;5090;51.258;4.436;2022-11-15T09:05:08;7.80;;;3.10;;
10100;SDS011;5090;51.258;4.436;2022-11-15T09:07:36;9.10;;;3.40;;
10100;SDS011;5090;51.258;4.436;2022-11-15T09:10:04;6.03;;;2.70;;
10100;SDS011;5090;51.258;4.436;2022-11-15T09:12:32;7.40;;;3.40;;
10100;SDS011;5090;51.258;4.436;2022-11-15T09:15:00;5.63;;;2.53;;
10100;SDS011;5090;51.258;4.436;2022-11-15T09:17:29;6.40;;;2.67;;
10100;SDS011;5090;51.258;4.436;2022-11-15T09:19:57;5.17;;;2.77;;
10100;SDS011;5090;51.258;4.436;2022-11-15T09:22:25;9.73;;;3.37;;
10100;SDS011;5090;51.258;4.436;2022-11-15T09:24:53;4.83;;;2.77;;
10100;SDS011;5090;51.258;4.436;2022-11-15T09:27:21;3.40;;;2.20;;
10100;SDS011;5090;51.258;4.436;2022-11-15T09:29:50;7.27;;;2.73;;
10100;SDS011;5090;51.258;4.436;2022-11-15T09:32:18;8.40;;;2.33;;
10100;SDS011;5090;51.258;4.436;2022-11-15T09:34:47;7.13;;;2.50;;
10100;SDS011;5090;51.258;4.436;2022-11-15T09:37:15;10.20;;;2.43;;
10100;SDS011;5090;51.258;4.436;2022-11-15T09:39:43;7.93;;;2.30;;
10100;SDS011;5090;51.258;4.436;2022-11-15T09:45:06;5.77;;;1.73;;
10100;SDS011;5090;51.258;4.436;2022-11-15T09:50:15;7.23;;;1.73;;
10100;SDS011;5090;51.258;4.436;2022-11-15T09:52:44;8.53;;;2.37;;
10100;SDS011;5090;51.258;4.436;2022-11-15T09:55:11;5.80;;;1.40;;
10100;SDS011;5090;51.258;4.436;2022-11-15T09:57:54;8.47;;;2.00;;
10100;SDS011;5090;51.258;4.436;2022-11-15T10:00:19;7.37;;;1.80;;
10100;SDS011;5090;51.258;4.436;2022-11-15T10:03:02;2.93;;;1.67;;
10100;SDS011;5090;51.258;4.436;2022-11-15T10:05:28;4.13;;;1.50;;
10100;SDS011;5090;51.258;4.436;2022-11-15T10:08:01;4.67;;;1.50;;
10100;SDS011;5090;51.258;4.436;2022-11-15T10:10:29;8.03;;;1.90;;
10100;SDS011;5090;51.258;4.436;2022-11-15T10:12:55;8.33;;;1.90;;
10100;SDS011;5090;51.258;4.436;2022-11-15T10:15:23;7.40;;;1.60;;
10100;SDS011;5090;51.258;4.436;2022-11-15T10:18:03;8.37;;;1.37;;
10100;SDS011;5090;51.258;4.436;2022-11-15T10:20:28;4.63;;;1.07;;
10100;SDS011;5090;51.258;4.436;2022-11-15T10:22:56;7.33;;;1.43;;
10100;SDS011;5090;51.258;4.436;2022-11-15T10:25:25;8.87;;;1.70;;
10100;SDS011;5090;51.258;4.436;2022-11-15T10:27:54;6.10;;;1.00;;
10100;SDS011;5090;51.258;4.436;2022-11-15T10:30:21;9.10;;;1.20;;
10100;SDS011;5090;51.258;4.436;2022-11-15T10:32:49;3.90;;;1.33;;
10100;SDS011;5090;51.258;4.436;2022-11-15T10:35:21;9.67;;;1.30;;
10100;SDS011;5090;51.258;4.436;2022-11-15T10:37:47;9.70;;;2.00;;
10100;SDS011;5090;51.258;4.436;2022-11-15T10:40:20;4.27;;;1.40;;
10100;SDS011;5090;51.258;4.436;2022-11-15T10:42:47;4.00;;;1.10;;
10100;SDS011;5090;51.258;4.436;2022-11-15T10:47:49;8.07;;;1.73;;
10100;SDS011;5090;51.258;4.436;2022-11-15T10:50:31;8.80;;;1.90;;
10100;SDS011;5090;51.258;4.436;2022-11-15T10:52:56;5.00;;;1.37;;
10100;SDS011;5090;51.258;4.436;2022-11-15T10:55:26;6.97;;;1.30;;
10100;SDS011;5090;51.258;4.436;2022-11-15T10:57:55;5.17;;;1.73;;
10100;SDS011;5090;51.258;4.436;2022-11-15T11:00:27;7.47;;;2.07;;
10100;SDS011;5090;51.258;4.436;2022-11-15T11:02:59;6.17;;;1.40;;
10100;SDS011;5090;51.258;4.436;2022-11-15T11:05:29;6.00;;;1.20;;
10100;SDS011;5090;51.258;4.436;2022-11-15T11:07:57;2.93;;;1.10;;
10100;SDS011;5090;51.258;4.436;2022-11-15T11:10:24;5.20;;;1.23;;
10100;SDS011;5090;51.258;4.436;2022-11-15T11:12:52;6.40;;;1.17;;
10100;SDS011;5090;51.258;4.436;2022-11-15T11:15:21;7.77;;;0.97;;
10100;SDS011;5090;51.258;4.436;2022-11-15T11:17:54;5.03;;;1.23;;
10100;SDS011;5090;51.258;4.436;2022-11-15T11:28:20;8.50;;;1.17;;
10100;SDS011;5090;51.258;4.436;2022-11-15T11:30:53;7.53;;;1.30;;
10100;SDS011;5090;51.258;4.436;2022-11-15T11:33:19;9.47;;;1.53;;
10100;SDS011;5090;51.258;4.436;2022-11-15T11:35:51;4.97;;;1.47;;
10100;SDS011;5090;51.258;4.436;2022-11-15T11:38:28;17.83;;;3.03;;
10100;SDS011;5090;51.258;4.436;2022-11-15T11:40:59;5.37;;;0.90;;
10100;SDS011;5090;51.258;4.436;2022-11-15T11:43:27;3.90;;;0.87;;
10100;SDS011;5090;51.258;4.436;2022-11-15T11:48:41;9.20;;;1.00;;
10100;SDS011;5090;51.258;4.436;2022-11-15T11:51:12;6.03;;;2.20;;
10100;SDS011;5090;51.258;4.436;2022-11-15T11:56:27;4.57;;;1.40;;
10100;SDS011;5090;51.258;4.436;2022-11-15T11:58:54;7.97;;;1.33;;
10100;SDS011;5090;51.258;4.436;2022-11-15T12:01:25;26.33;;;3.73;;
10100;SDS011;5090;51.258;4.436;2022-11-15T12:03:55;8.03;;;2.30;;
10100;SDS011;5090;51.258;4.436;2022-11-15T12:06:24;5.73;;;1.20;;
10100;SDS011;5090;51.258;4.436;2022-11-15T12:08:53;4.73;;;1.13;;
10100;SDS011;5090;51.258;4.436;2022-11-15T12:11:23;6.77;;;1.30;;
10100;SDS011;5090;51.258;4.436;2022-11-15T12:13:50;4.73;;;1.50;;
10100;SDS011;5090;51.258;4.436;2022-11-15T12:16:33;4.23;;;0.83;;
10100;SDS011;5090;51.258;4.436;2022-11-15T12:19:02;3.47;;;1.33;;
10100;SDS011;5090;51.258;4.436;2022-11-15T12:21:52;7.43;;;1.07;;
10100;SDS011;5090;51.258;4.436;2022-11-15T12:24:19;3.80;;;1.43;;
10100;SDS011;5090;51.258;4.436;2022-11-15T12:26:52;5.97;;;1.43;;
10100;SDS011;5090;51.258;4.436;2022-11-15T12:32:03;2.33;;;0.90;;
10100;SDS011;5090;51.258;4.436;2022-11-15T12:34:37;9.27;;;1.67;;
10100;SDS011;5090;51.258;4.436;2022-11-15T12:37:32;3.50;;;1.20;;
10100;SDS011;5090;51.258;4.436;2022-11-15T12:44:56;7.00;;;1.23;;
10100;SDS011;5090;51.258;4.436;2022-11-15T12:47:25;3.03;;;0.90;;
10100;SDS011;5090;51.258;4.436;2022-11-15T12:49:53;3.93;;;1.40;;
10100;SDS011;5090;51.258;4.436;2022-11-15T12:52:21;2.97;;;1.00;;
10100;SDS011;5090;51.258;4.436;2022-11-15T12:54:51;7.27;;;1.10;;
10100;SDS011;5090;51.258;4.436;2022-11-15T12:57:26;6.53;;;1.57;;
10100;SDS011;5090;51.258;4.436;2022-11-15T12:59:50;4.53;;;1.10;;
10100;SDS011;5090;51.258;4.436;2022-11-15T13:02:25;5.25;;;1.17;;
10100;SDS011;5090;51.258;4.436;2022-11-15T13:04:55;5.67;;;1.03;;
10100;SDS011;5090;51.258;4.436;2022-11-15T13:07:56;5.57;;;1.07;;
10100;SDS011;5090;51.258;4.436;2022-11-15T13:12:54;3.33;;;1.20;;
10100;SDS011;5090;51.258;4.436;2022-11-15T13:17:56;3.17;;;1.20;;
10100;SDS011;5090;51.258;4.436;2022-11-15T13:20:26;5.33;;;1.40;;
10100;SDS011;5090;51.258;4.436;2022-11-15T13:23:11;4.03;;;1.30;;
10100;SDS011;5090;51.258;4.436;2022-11-15T13:25:43;8.10;;;1.47;;
10100;SDS011;5090;51.258;4.436;2022-11-15T13:30:40;9.20;;;1.20;;
10100;SDS011;5090;51.258;4.436;2022-11-15T13:33:10;5.37;;;1.53;;
10100;SDS011;5090;51.258;4.436;2022-11-15T13:35:39;3.63;;;1.10;;
10100;SDS011;5090;51.258;4.436;2022-11-15T13:38:17;3.67;;;1.40;;
10100;SDS011;5090;51.258;4.436;2022-11-15T13:40:35;3.77;;;1.00;;
10100;SDS011;5090;51.258;4.436;2022-11-15T13:45:37;4.03;;;1.30;;
10100;SDS011;5090;51.258;4.436;2022-11-15T13:48:05;5.20;;;1.30;;
10100;SDS011;5090;51.258;4.436;2022-11-15T13:50:34;7.97;;;1.43;;
10100;SDS011;5090;51.258;4.436;2022-11-15T13:53:02;3.40;;;1.20;;
10100;SDS011;5090;51.258;4.436;2022-11-15T13:55:30;2.83;;;1.17;;
10100;SDS011;5090;51.258;4.436;2022-11-15T13:57:59;2.93;;;1.07;;
10100;SDS011;5090;51.258;4.436;2022-11-15T14:00:33;6.10;;;1.33;;
10100;SDS011;5090;51.258;4.436;2022-11-15T14:03:41;6.23;;;1.47;;
10100;SDS011;5090;51.258;4.436;2022-11-15T14:08:23;4.73;;;1.73;;
10100;SDS011;5090;51.258;4.436;2022-11-15T14:13:28;4.87;;;1.10;;
10100;SDS011;5090;51.258;4.436;2022-11-15T14:15:55;3.97;;;1.47;;
10100;SDS011;5090;51.258;4.436;2022-11-15T14:23:31;4.03;;;1.30;;
10100;SDS011;5090;51.258;4.436;2022-11-15T14:25:59;1.80;;;1.00;;
10100;SDS011;5090;51.258;4.436;2022-11-15T14:28:28;4.77;;;1.50;;
10100;SDS011;5090;51.258;4.436;2022-11-15T14:30:57;4.93;;;1.80;;
10100;SDS011;5090;51.258;4.436;2022-11-15T14:33:28;3.97;;;1.20;;
10100;SDS011;5090;51.258;4.436;2022-11-15T14:35:57;5.93;;;1.33;;
10100;SDS011;5090;51.258;4.436;2022-11-15T14:38:24;8.83;;;1.50;;
10100;SDS011;5090;51.258;4.436;2022-11-15T14:40:52;5.10;;;1.20;;
10100;SDS011;5090;51.258;4.436;2022-11-15T14:43:21;4.97;;;1.43;;
10100;SDS011;5090;51.258;4.436;2022-11-15T14:45:49;1.20;;;1.00;;
10100;SDS011;5090;51.258;4.436;2022-11-15T14:48:17;5.60;;;1.10;;
10100;SDS011;5090;51.258;4.436;2022-11-15T14:50:46;3.50;;;1.23;;
10100;SDS011;5090;51.258;4.436;2022-11-15T14:53:14;4.80;;;1.20;;
10100;SDS011;5090;51.258;4.436;2022-11-15T14:55:42;4.87;;;1.30;;
10100;SDS011;5090;51.258;4.436;2022-11-15T14:58:10;4.63;;;1.10;;
10100;SDS011;5090;51.258;4.436;2022-11-15T15:00:39;3.23;;;1.30;;
10100;SDS011;5090;51.258;4.436;2022-11-15T15:03:07;5.80;;;1.30;;
10100;SDS011;5090;51.258;4.436;2022-11-15T15:05:37;3.97;;;1.30;;
10100;SDS011;5090;51.258;4.436;2022-11-15T15:08:04;3.47;;;1.20;;
10100;SDS011;5090;51.258;4.436;2022-11-15T15:10:35;3.93;;;1.57;;
10100;SDS011;5090;51.258;4.436;2022-11-15T15:13:03;3.63;;;1.67;;
10100;SDS011;5090;51.258;4.436;2022-11-15T15:15:36;9.93;;;1.50;;
10100;SDS011;5090;51.258;4.436;2022-11-15T15:18:08;3.63;;;1.60;;
10100;SDS011;5090;51.258;4.436;2022-11-15T15:20:38;7.67;;;3.50;;
10100;SDS011;5090;51.258;4.436;2022-11-15T15:23:16;3.83;;;1.60;;
10100;SDS011;5090;51.258;4.436;2022-11-15T15:25:46;9.37;;;2.17;;
10100;SDS011;5090;51.258;4.436;2022-11-15T15:28:15;5.03;;;1.97;;
10100;SDS011;5090;51.258;4.436;2022-11-15T15:30:44;4.40;;;2.00;;
10100;SDS011;5090;51.258;4.436;2022-11-15T15:33:13;2.30;;;1.80;;
10100;SDS011;5090;51.258;4.436;2022-11-15T15:35:41;5.10;;;2.30;;
10100;SDS011;5090;51.258;4.436;2022-11-15T15:38:11;5.00;;;2.20;;
10100;SDS011;5090;51.258;4.436;2022-11-15T15:40:43;5.87;;;2.40;;
10100;SDS011;5090;51.258;4.436;2022-11-15T15:43:11;7.00;;;2.43;;
10100;SDS011;5090;51.258;4.436;2022-11-15T15:45:41;6.03;;;2.83;;
10100;SDS011;5090;51.258;4.436;2022-11-15T15:48:13;5.17;;;3.63;;
10100;SDS011;5090;51.258;4.436;2022-11-15T15:50:45;4.20;;;3.00;;
10100;SDS011;5090;51.258;4.436;2022-11-15T15:53:15;6.90;;;2.80;;
10100;SDS011;5090;51.258;4.436;2022-11-15T15:55:43;4.30;;;2.17;;
10100;SDS011;5090;51.258;4.436;2022-11-15T15:58:12;3.33;;;2.57;;
10100;SDS011;5090;51.258;4.436;2022-11-15T16:00:40;6.70;;;2.50;;